Time;durP1;ratioP1;P1;durP2;ratioP2;P2;SDS_P1;SDS_P2;PMS_P1;PMS_P2;Temp;Humidity;BMP_temperature;BMP_pressure;BME280_temperature;BME280_humidity;BME280_pressure;Samples;Min_cycle;Max_cycle;Signal;HPM_P1;HPM_P2
2022/12/01 00:01:00;;;;;;;0.00;0.00;;;;;;;16.49;61.99;103022.22;2057983;28;20105;-76
2022/12/01 00:02:03;;;;;;;0.00;0.00;;;;;;;16.47;62.17;103022.53;2061615;28;20065;-76
2022/12/01 00:03:06;;;;;;;0.00;0.00;;;;;;;16.47;62.09;103022.53;2076762;28;20045;-76
2022/12/01 00:04:09;;;;;;;0.00;0.00;;;;;;;16.48;62.10;103026.06;2076177;28;20059;-76
2022/12/01 00:05:10;;;;;;;0.00;0.00;;;;;;;16.48;62.09;103024.13;2068510;28;20450;-76
2022/12/01 00:06:15;;;;;;;0.00;0.00;;;;;;;16.49;61.87;103024.94;2069847;28;20053;-76
2022/12/01 00:07:16;;;;;;;0.00;0.00;;;;;;;16.48;61.87;103020.59;2077012;28;20056;-76
2022/12/01 00:08:19;;;;;;;0.00;0.00;;;;;;;16.47;61.91;103029.91;2067359;28;20107;-76
2022/12/01 00:10:43;;;;;;;0.00;0.00;;;;;;;16.43;62.00;103033.25;2071984;28;20060;-76
2022/12/01 00:11:45;;;;;;;0.00;0.00;;;;;;;16.44;62.12;103023.97;2059873;28;20049;-77
2022/12/01 00:12:47;;;;;;;0.00;0.00;;;;;;;16.44;61.96;103031.34;2053633;28;20051;-75
2022/12/01 00:13:50;;;;;;;0.00;0.00;;;;;;;16.46;62.02;103028.31;2062951;28;20057;-76
2022/12/01 00:14:59;;;;;;;0.00;0.00;;;;;;;16.47;61.80;103027.19;2062124;28;20050;-76
2022/12/01 00:16:10;;;;;;;0.00;0.00;;;;;;;16.41;62.11;103024.59;2055853;28;20064;-76
2022/12/01 00:17:12;;;;;;;0.00;0.00;;;;;;;16.42;62.10;103031.69;2063759;28;20050;-76
2022/12/01 00:18:15;;;;;;;0.00;0.00;;;;;;;16.43;62.03;103021.56;2069375;28;20108;-76
2022/12/01 00:19:16;;;;;;;0.00;0.00;;;;;;;16.42;61.89;103026.22;2076680;28;20057;-76
2022/12/01 00:20:19;;;;;;;0.00;0.00;;;;;;;16.43;61.86;103027.81;2076494;28;20053;-77
2022/12/01 00:21:23;;;;;;;0.00;0.00;;;;;;;16.44;62.16;103028.63;2069562;28;20050;-76
2022/12/01 00:22:29;;;;;;;0.00;0.00;;;;;;;16.43;61.91;103032.47;2063330;28;20058;-76
2022/12/01 00:23:30;;;;;;;0.00;0.00;;;;;;;16.43;62.03;103033.25;2075305;28;20053;-76
2022/12/01 00:24:35;;;;;;;0.00;0.00;;;;;;;16.44;61.97;103028.63;2077895;28;20057;-75
2022/12/01 00:25:37;;;;;;;0.00;0.00;;;;;;;16.43;61.85;103027.00;2069167;28;20548;-75
2022/12/01 00:26:39;;;;;;;0.00;0.00;;;;;;;16.43;61.99;103027.81;2081867;28;20049;-76
2022/12/01 00:27:41;;;;;;;0.00;0.00;;;;;;;16.43;62.05;103022.38;2078610;28;20136;-76
2022/12/01 00:28:48;;;;;;;0.00;0.00;;;;;;;16.43;61.96;103027.81;2062579;28;20052;-75
2022/12/01 00:29:50;;;;;;;0.00;0.00;;;;;;;16.43;61.97;103022.38;2063589;28;20054;-75
2022/12/01 00:30:53;;;;;;;0.00;0.00;;;;;;;16.42;62.03;103020.78;2068470;28;20108;-75
2022/12/01 00:31:55;;;;;;;0.00;0.00;;;;;;;16.43;61.83;103011.47;2069530;28;20057;-75
2022/12/01 00:32:58;;;;;;;0.00;0.00;;;;;;;16.42;61.78;103012.59;2062779;28;20054;-76
2022/12/01 00:34:00;;;;;;;0.00;0.00;;;;;;;16.43;61.87;103018.81;2053933;28;20062;-74
2022/12/01 00:35:04;;;;;;;0.00;0.00;;;;;;;16.44;61.86;103017.72;2064272;28;20711;-76
2022/12/01 00:36:07;;;;;;;0.00;0.00;;;;;;;16.42;61.87;103012.59;2069844;28;20050;-76
2022/12/01 00:37:10;;;;;;;0.00;0.00;;;;;;;16.41;61.85;103013.69;2069235;28;20532;-76
2022/12/01 00:38:11;;;;;;;0.00;0.00;;;;;;;16.41;61.82;103016.44;2069234;28;20115;-76
2022/12/01 00:39:14;;;;;;;0.00;0.00;;;;;;;16.42;61.76;103015.31;2071903;28;20541;-74
2022/12/01 00:40:17;;;;;;;0.00;0.00;;;;;;;16.42;61.82;103009.88;2068627;28;20545;-77
2022/12/01 00:41:21;;;;;;;0.00;0.00;;;;;;;16.41;61.89;103016.44;2067579;28;20534;-76
2022/12/01 00:42:24;;;;;;;0.00;0.00;;;;;;;16.39;61.91;103007.75;2070762;28;20140;-76
2022/12/01 00:43:26;;;;;;;0.00;0.00;;;;;;;16.42;61.89;103014.50;2071834;28;20057;-76
2022/12/01 00:44:28;;;;;;;0.00;0.00;;;;;;;16.41;61.79;103008.25;2069255;28;20046;-76
2022/12/01 00:45:31;;;;;;;0.00;0.00;;;;;;;16.42;61.86;103003.59;2062196;28;20677;-75
2022/12/01 00:46:33;;;;;;;0.00;0.00;;;;;;;16.41;61.83;103008.25;2062919;28;20061;-76
2022/12/01 00:47:35;;;;;;;0.00;0.00;;;;;;;16.41;61.84;103008.25;2072110;28;20066;-76
2022/12/01 00:48:37;;;;;;;0.00;0.00;;;;;;;16.42;61.90;103006.31;2069955;28;20061;-76
2022/12/01 00:49:40;;;;;;;0.00;0.00;;;;;;;16.42;61.89;103018.03;2069456;28;20046;-74
2022/12/01 00:50:42;;;;;;;0.00;0.00;;;;;;;16.41;61.85;103012.91;2060603;28;20057;-76
2022/12/01 00:51:45;;;;;;;0.00;0.00;;;;;;;16.41;61.87;103016.44;2060839;28;20051;-76
2022/12/01 00:52:48;;;;;;;0.00;0.00;;;;;;;16.41;61.94;103010.97;2069075;28;20772;-76
2022/12/01 00:53:50;;;;;;;0.00;0.00;;;;;;;16.41;61.85;103007.47;2067874;28;20445;-74
2022/12/01 00:54:52;;;;;;;0.00;0.00;;;;;;;16.41;61.78;103012.91;2063688;28;20054;-74
2022/12/01 00:55:56;;;;;;;0.00;0.00;;;;;;;16.41;61.79;103019.16;2064605;28;20865;-74
2022/12/01 00:56:58;;;;;;;0.00;0.00;;;;;;;16.39;61.74;103010.50;2070939;28;20054;-74
2022/12/01 00:58:01;;;;;;;0.00;0.00;;;;;;;16.40;61.86;103016.75;2070153;28;20046;-74
2022/12/01 00:59:03;;;;;;;0.00;0.00;;;;;;;16.40;61.77;103019.47;2070220;28;20457;-74
2022/12/01 01:00:07;;;;;;;0.00;0.00;;;;;;;16.40;61.76;103012.13;2070581;28;20513;-74
2022/12/01 01:01:09;;;;;;;0.00;0.00;;;;;;;16.38;61.81;103017.09;2069532;28;20537;-73
2022/12/01 01:02:11;;;;;;;0.00;0.00;;;;;;;16.39;61.68;103015.94;2068297;28;20050;-73
2022/12/01 01:03:13;;;;;;;0.00;0.00;;;;;;;16.39;61.66;103015.94;2062295;28;20058;-73
2022/12/01 01:04:16;;;;;;;0.00;0.00;;;;;;;16.39;61.71;103018.66;2063815;28;20054;-74
2022/12/01 01:05:18;;;;;;;0.00;0.00;;;;;;;16.39;61.75;103018.66;2072513;28;20652;-73
2022/12/01 01:06:20;;;;;;;0.00;0.00;;;;;;;16.38;61.78;103014.34;2072639;28;20105;-74
2022/12/01 01:07:22;;;;;;;0.00;0.00;;;;;;;16.38;61.62;103021.72;2071034;28;20050;-73
2022/12/01 01:08:25;;;;;;;0.00;0.00;;;;;;;16.39;61.72;103018.66;2071247;28;20050;-73
2022/12/01 01:09:27;;;;;;;0.00;0.00;;;;;;;16.38;61.96;103025.25;2071883;28;20068;-73
2022/12/01 01:10:30;;;;;;;0.00;0.00;;;;;;;16.39;61.68;103018.66;2071821;28;20093;-73
2022/12/01 01:11:33;;;;;;;0.00;0.00;;;;;;;16.40;61.77;103022.22;2068862;28;20050;-75
2022/12/01 01:12:37;;;;;;;0.00;0.00;;;;;;;16.38;62.13;103019.81;2072451;28;20054;-74
2022/12/01 01:13:38;;;;;;;0.00;0.00;;;;;;;16.38;61.77;103021.72;2063779;28;20043;-74
2022/12/01 01:14:41;;;;;;;0.00;0.00;;;;;;;16.37;61.85;103029.13;2063178;28;20057;-74
2022/12/01 01:15:43;;;;;;;0.00;0.00;;;;;;;16.38;61.55;103022.53;2069646;28;20058;-74
2022/12/01 01:16:45;;;;;;;0.00;0.00;;;;;;;16.37;61.82;103026.41;2068038;28;20549;-74
2022/12/01 01:17:47;;;;;;;0.00;0.00;;;;;;;16.38;61.85;103029.91;2070179;28;20506;-76
2022/12/01 01:18:50;;;;;;;0.00;0.00;;;;;;;16.38;61.70;103033.44;2063014;28;20759;-75
2022/12/01 01:19:52;;;;;;;0.00;0.00;;;;;;;16.38;61.59;103038.91;2062139;28;20454;-76
2022/12/01 01:20:57;;;;;;;0.00;0.00;;;;;;;16.37;61.58;103029.13;2063587;28;20046;-75
2022/12/01 01:22:00;;;;;;;0.00;0.00;;;;;;;16.36;61.75;103032.19;2068801;28;20058;-75
2022/12/01 01:23:02;;;;;;;0.00;0.00;;;;;;;16.37;61.94;103040.03;2070608;28;20530;-76
2022/12/01 01:24:06;;;;;;;0.00;0.00;;;;;;;16.37;61.54;103040.03;2071583;28;20045;-76
2022/12/01 01:25:08;;;;;;;0.00;0.00;;;;;;;16.36;61.82;103035.69;2078577;28;20076;-75
2022/12/01 01:26:18;;;;;;;0.00;0.00;;;;;;;16.34;61.57;103034.44;2062954;28;20054;-75
2022/12/01 01:27:21;;;;;;;0.00;0.00;;;;;;;16.34;61.77;103040.69;2059151;28;20074;-75
2022/12/01 01:28:23;;;;;;;0.00;0.00;;;;;;;16.35;61.66;103041.47;2054304;28;20078;-76
2022/12/01 01:29:26;;;;;;;0.00;0.00;;;;;;;16.36;61.59;103040.34;2056804;28;20061;-75
2022/12/01 01:30:28;;;;;;;0.00;0.00;;;;;;;16.35;61.64;103036.00;2064272;28;20058;-76
2022/12/01 01:31:31;;;;;;;0.00;0.00;;;;;;;16.36;61.79;103043.09;2066969;28;20057;-75
2022/12/01 01:32:33;;;;;;;0.00;0.00;;;;;;;16.34;61.55;103042.59;2068674;28;20054;-75
2022/12/01 01:33:36;;;;;;;0.00;0.00;;;;;;;16.35;61.80;103036.81;2070167;28;20054;-76
2022/12/01 01:34:37;;;;;;;0.00;0.00;;;;;;;16.35;61.66;103042.28;2071705;28;20085;-75
2022/12/01 01:35:40;;;;;;;0.00;0.00;;;;;;;16.34;61.37;103043.41;2071334;28;20112;-76
2022/12/01 01:36:42;;;;;;;0.00;0.00;;;;;;;16.35;61.63;103041.47;2069483;28;20058;-75
2022/12/01 01:37:45;;;;;;;0.00;0.00;;;;;;;16.35;61.71;103039.53;2069895;28;20065;-76
2022/12/01 01:38:47;;;;;;;0.00;0.00;;;;;;;16.35;61.58;103042.28;2072354;28;20061;-75
2022/12/01 01:39:49;;;;;;;0.00;0.00;;;;;;;16.34;61.71;103046.13;2069755;28;21397;-75
2022/12/01 01:40:51;;;;;;;0.00;0.00;;;;;;;16.34;61.63;103043.41;2069236;28;20567;-75
2022/12/01 01:41:54;;;;;;;0.00;0.00;;;;;;;16.35;61.57;103044.19;2069480;28;20224;-75
2022/12/01 01:42:58;;;;;;;0.00;0.00;;;;;;;16.35;61.50;103038.75;2070985;28;20042;-76
2022/12/01 01:44:02;;;;;;;0.00;0.00;;;;;;;16.34;61.59;103039.88;2068665;28;20050;-75
2022/12/01 01:45:18;;;;;;;0.00;0.00;;;;;;;16.29;61.48;103040.03;2070416;28;20054;-75
2022/12/01 01:46:23;;;;;;;0.00;0.00;;;;;;;16.31;61.69;103035.06;2065987;28;20057;-76
2022/12/01 01:47:29;;;;;;;0.00;0.00;;;;;;;16.32;61.63;103042.13;2054498;28;20062;-75
2022/12/01 01:48:33;;;;;;;0.00;0.00;;;;;;;16.31;61.66;103041.34;2053981;28;20519;-76
2022/12/01 01:49:35;;;;;;;0.00;0.00;;;;;;;16.32;61.73;103042.94;2063875;28;20050;-75
2022/12/01 01:50:38;;;;;;;0.00;0.00;;;;;;;16.30;61.71;103037.00;2072554;28;20053;-75
2022/12/01 01:51:43;;;;;;;0.00;0.00;;;;;;;16.32;61.50;103036.66;2061618;28;20043;-75
2022/12/01 01:52:51;;;;;;;0.00;0.00;;;;;;;16.32;61.79;103037.47;2065679;28;20442;-75
2022/12/01 01:53:57;;;;;;;0.00;0.00;;;;;;;16.31;61.71;103038.63;2071962;28;20065;-75
2022/12/01 01:55:00;;;;;;;0.00;0.00;;;;;;;16.31;61.63;103038.63;2072222;28;21155;-75
2022/12/01 01:56:03;;;;;;;0.00;0.00;;;;;;;16.31;61.73;103041.34;2069869;28;20061;-75
2022/12/01 01:57:09;;;;;;;0.00;0.00;;;;;;;16.31;61.81;103035.88;2071317;28;20061;-75
2022/12/01 01:58:12;;;;;;;0.00;0.00;;;;;;;16.30;61.67;103039.72;2069239;28;20046;-75
2022/12/01 01:59:21;;;;;;;0.00;0.00;;;;;;;16.31;61.62;103043.25;2072644;28;20178;-75
2022/12/01 02:00:23;;;;;;;0.00;0.00;;;;;;;16.30;61.73;103039.72;2072893;28;20132;-75
2022/12/01 02:01:26;;;;;;;0.00;0.00;;;;;;;16.29;61.69;103043.59;2072094;28;20061;-75
2022/12/01 02:02:27;;;;;;;0.00;0.00;;;;;;;16.31;61.59;103041.34;2072135;28;20805;-75
2022/12/01 02:03:31;;;;;;;0.00;0.00;;;;;;;16.31;61.51;103040.53;2069923;28;20149;-75
2022/12/01 02:04:34;;;;;;;0.00;0.00;;;;;;;16.29;61.68;103043.59;2071001;28;20058;-75
2022/12/01 02:05:38;;;;;;;0.00;0.00;;;;;;;16.31;61.67;103040.53;2071852;28;20050;-75
2022/12/01 02:06:39;;;;;;;0.00;0.00;;;;;;;16.29;61.64;103040.84;2071733;28;20053;-75
2022/12/01 02:07:42;;;;;;;0.00;0.00;;;;;;;16.31;61.52;103045.97;2069622;28;20084;-75
2022/12/01 02:08:44;;;;;;;0.00;0.00;;;;;;;16.30;61.67;103044.38;2070690;28;20751;-75
2022/12/01 02:09:47;;;;;;;0.00;0.00;;;;;;;16.30;61.69;103039.72;2071868;28;20096;-75
2022/12/01 02:11:09;;;;;;;0.00;0.00;;;;;;;16.25;61.43;103034.44;2065545;28;20933;-75
2022/12/01 02:12:31;;;;;;;0.00;0.00;;;;;;;16.23;61.70;103038.63;2067882;28;20088;-75
2022/12/01 02:13:46;;;;;;;0.00;0.00;;;;;;;16.23;61.58;103035.91;2067669;28;20061;-75
2022/12/01 02:15:03;;;;;;;0.00;0.00;;;;;;;16.21;61.59;103041.69;2076514;28;20065;-75
2022/12/01 02:16:11;;;;;;;0.00;0.00;;;;;;;16.23;61.34;103034.00;2077868;28;20422;-75
2022/12/01 02:17:29;;;;;;;0.00;0.00;;;;;;;16.21;61.72;103036.22;2063898;28;20054;-75
2022/12/01 02:18:38;;;;;;;0.00;0.00;;;;;;;16.22;61.63;103032.38;2060922;28;20419;-75
2022/12/01 02:19:55;;;;;;;0.00;0.00;;;;;;;16.23;61.58;103038.63;2063663;28;20054;-76
2022/12/01 02:21:28;;;;;;;0.00;0.00;;;;;;;16.12;61.93;103031.94;2070671;28;20533;-75
2022/12/01 02:22:47;;;;;;;0.00;0.00;;;;;;;16.14;61.71;103018.78;2075966;28;20053;-75
2022/12/01 02:24:25;;;;;;;0.00;0.00;;;;;;;16.14;61.86;103022.28;2076098;28;20057;-75
2022/12/01 02:25:41;;;;;;;0.00;0.00;;;;;;;16.14;61.79;103025.00;2041027;28;20060;-75
2022/12/01 02:26:48;;;;;;;0.00;0.00;;;;;;;16.17;61.90;103023.59;2071261;28;20053;-75
2022/12/01 02:28:08;;;;;;;0.00;0.00;;;;;;;16.16;61.58;103024.69;2069519;28;20053;-75
2022/12/01 02:29:42;;;;;;;0.00;0.00;;;;;;;16.05;62.15;103016.06;2067276;28;20054;-75
2022/12/01 02:30:49;;;;;;;0.00;0.00;;;;;;;16.14;62.01;103027.75;2066734;28;20123;-74
2022/12/01 02:31:58;;;;;;;0.00;0.00;;;;;;;16.15;61.67;103029.34;2064689;28;20062;-75
2022/12/01 02:33:06;;;;;;;0.00;0.00;;;;;;;16.15;61.71;103026.63;2069216;28;20584;-76
2022/12/01 02:34:14;;;;;;;0.00;0.00;;;;;;;16.16;61.56;103030.94;2073169;28;20498;-75
2022/12/01 02:35:23;;;;;;;0.00;0.00;;;;;;;16.16;61.70;103025.50;2070138;28;20062;-75
2022/12/01 02:36:34;;;;;;;0.00;0.00;;;;;;;16.14;61.77;103027.75;2064519;28;20087;-75
2022/12/01 02:37:45;;;;;;;0.00;0.00;;;;;;;16.15;61.69;103025.81;2065660;28;20104;-75
2022/12/01 02:38:55;;;;;;;0.00;0.00;;;;;;;16.16;61.79;103028.22;2072943;28;20141;-71
2022/12/01 02:40:05;;;;;;;0.00;0.00;;;;;;;16.17;61.59;103029.81;2070405;28;20123;-75
2022/12/01 02:41:14;;;;;;;0.00;0.00;;;;;;;16.16;61.64;103028.22;2061409;28;20494;-75
2022/12/01 02:43:44;;;;;;;0.00;0.00;;;;;;;16.12;61.94;103021.84;2072095;28;21004;-74
2022/12/01 02:44:47;;;;;;;0.00;0.00;;;;;;;16.15;61.90;103029.34;2062421;28;20047;-75
2022/12/01 02:45:57;;;;;;;0.00;0.00;;;;;;;16.16;61.54;103028.22;2069215;28;20053;-75
2022/12/01 02:47:03;;;;;;;0.00;0.00;;;;;;;16.15;61.98;103021.19;2071364;28;20129;-75
2022/12/01 02:48:11;;;;;;;0.00;0.00;;;;;;;16.17;61.69;103027.09;2064165;28;20046;-74
2022/12/01 02:49:16;;;;;;;0.00;0.00;;;;;;;16.17;61.57;103024.38;2064056;28;20049;-74
2022/12/01 02:50:22;;;;;;;0.00;0.00;;;;;;;16.18;61.76;103028.72;2064280;28;20053;-75
2022/12/01 02:51:29;;;;;;;0.00;0.00;;;;;;;16.18;61.88;103025.16;2062344;28;20664;-75
2022/12/01 02:52:31;;;;;;;0.00;0.00;;;;;;;16.17;61.74;103024.38;2072344;28;20460;-75
2022/12/01 02:53:34;;;;;;;0.00;0.00;;;;;;;16.18;61.75;103025.97;2060529;28;20049;-75
2022/12/01 02:54:37;;;;;;;0.00;0.00;;;;;;;16.18;61.77;103020.53;2059500;28;20054;-75
2022/12/01 02:55:47;;;;;;;0.00;0.00;;;;;;;16.17;61.65;103027.09;2068553;28;20510;-74
2022/12/01 02:56:51;;;;;;;0.00;0.00;;;;;;;16.17;61.84;103027.09;2070292;28;20054;-75
2022/12/01 02:57:54;;;;;;;0.00;0.00;;;;;;;16.17;61.64;103023.59;2070802;28;20056;-76
2022/12/01 02:58:56;;;;;;;0.00;0.00;;;;;;;16.17;61.58;103029.81;2071783;28;20046;-75
2022/12/01 02:59:59;;;;;;;0.00;0.00;;;;;;;16.19;61.70;103026.75;2069963;28;20045;-75
2022/12/01 03:01:26;;;;;;;0.00;0.00;;;;;;;16.14;61.67;103024.22;2068992;28;20072;-75
2022/12/01 03:02:42;;;;;;;0.00;0.00;;;;;;;16.15;61.85;103028.56;2054401;28;20425;-75
2022/12/01 03:03:59;;;;;;;0.00;0.00;;;;;;;16.11;61.79;103025.66;2065859;28;20062;-75
2022/12/01 03:05:08;;;;;;;0.00;0.00;;;;;;;16.15;61.70;103026.63;2072904;28;20061;-75
2022/12/01 03:06:19;;;;;;;0.00;0.00;;;;;;;16.15;61.45;103021.19;2070352;28;20851;-75
2022/12/01 03:07:44;;;;;;;0.00;0.00;;;;;;;16.07;61.71;103016.56;2071230;28;20092;-73
2022/12/01 03:08:57;;;;;;;0.00;0.00;;;;;;;16.12;61.76;103021.84;2073519;28;20153;-75
2022/12/01 03:10:11;;;;;;;0.00;0.00;;;;;;;16.12;61.74;103018.28;2073022;28;20119;-74
2022/12/01 03:11:26;;;;;;;0.00;0.00;;;;;;;16.12;62.03;103016.38;2071289;28;20054;-75
2022/12/01 03:12:36;;;;;;;0.00;0.00;;;;;;;16.10;61.64;103013.19;2074105;28;20049;-75
2022/12/01 03:13:48;;;;;;;0.00;0.00;;;;;;;16.10;61.51;103010.44;2072556;28;20124;-75
2022/12/01 03:15:00;;;;;;;0.00;0.00;;;;;;;16.12;61.77;103015.56;2070221;28;20058;-75
2022/12/01 03:16:11;;;;;;;0.00;0.00;;;;;;;16.11;61.66;103011.25;2071527;28;20058;-75
2022/12/01 03:17:16;;;;;;;0.00;0.00;;;;;;;16.13;61.80;103017.16;2070857;28;20049;-75
2022/12/01 03:18:28;;;;;;;0.00;0.00;;;;;;;16.13;61.80;103011.72;2071802;28;20050;-75
2022/12/01 03:19:36;;;;;;;0.00;0.00;;;;;;;16.12;61.73;103016.38;2079652;28;20060;-75
2022/12/01 03:20:46;;;;;;;0.00;0.00;;;;;;;16.14;61.64;103024.22;2075891;28;20521;-74
2022/12/01 03:21:53;;;;;;;0.00;0.00;;;;;;;16.11;61.82;103017.50;2070146;28;20513;-74
2022/12/01 03:23:06;;;;;;;0.00;0.00;;;;;;;16.13;61.60;103011.72;2071936;28;20054;-72
2022/12/01 03:24:10;;;;;;;0.00;0.00;;;;;;;16.11;61.69;103014.75;2080319;28;20525;-74
2022/12/01 03:25:15;;;;;;;0.00;0.00;;;;;;;16.13;61.78;103015.25;2075534;28;20440;-75
2022/12/01 03:26:20;;;;;;;0.00;0.00;;;;;;;16.14;61.76;103016.84;2069931;28;21040;-74
2022/12/01 03:27:29;;;;;;;0.00;0.00;;;;;;;16.14;61.56;103018.78;2071084;28;20064;-74
2022/12/01 03:28:36;;;;;;;0.00;0.00;;;;;;;16.13;61.80;103017.97;2073231;28;20049;-74
2022/12/01 03:29:43;;;;;;;0.00;0.00;;;;;;;16.14;61.63;103025.00;2072289;28;20529;-74
2022/12/01 03:30:47;;;;;;;0.00;0.00;;;;;;;16.13;61.26;103017.97;2071621;28;20053;-72
2022/12/01 03:31:57;;;;;;;0.00;0.00;;;;;;;16.14;61.53;103016.06;2071498;28;20049;-74
2022/12/01 03:33:03;;;;;;;0.00;0.00;;;;;;;16.12;61.57;103021.84;2077885;28;20054;-74
2022/12/01 03:34:11;;;;;;;0.00;0.00;;;;;;;16.14;61.82;103016.06;2074811;28;20046;-74
2022/12/01 03:35:20;;;;;;;0.00;0.00;;;;;;;16.12;61.59;103021.03;2068977;28;20054;-74
2022/12/01 03:36:29;;;;;;;0.00;0.00;;;;;;;16.12;61.53;103027.28;2070630;28;20068;-75
2022/12/01 03:37:35;;;;;;;0.00;0.00;;;;;;;16.12;61.63;103016.38;2071414;28;20054;-74
2022/12/01 03:38:41;;;;;;;0.00;0.00;;;;;;;16.14;61.71;103024.22;2070462;28;20057;-74
2022/12/01 03:39:46;;;;;;;0.00;0.00;;;;;;;16.13;61.58;103023.41;2069805;28;20502;-75
2022/12/01 03:40:54;;;;;;;0.00;0.00;;;;;;;16.13;61.63;103023.41;2072329;28;20165;-75
2022/12/01 03:42:01;;;;;;;0.00;0.00;;;;;;;16.14;61.49;103030.47;2068540;28;20054;-75
2022/12/01 03:43:07;;;;;;;0.00;0.00;;;;;;;16.14;61.69;103029.69;2067898;28;20053;-74
2022/12/01 03:44:13;;;;;;;0.00;0.00;;;;;;;16.14;61.63;103030.47;2079389;28;20069;-75
2022/12/01 03:45:23;;;;;;;0.00;0.00;;;;;;;16.12;61.55;103030.00;2067543;28;20065;-75
2022/12/01 03:46:31;;;;;;;;;;;;;;;15.92;61.98;103027.94;2062038;28;20056;-75
2022/12/01 03:47:38;;;;;;;0.00;0.00;;;;;;;16.04;61.80;103030.03;2062431;28;19929;-75
2022/12/01 03:48:41;;;;;;;0.00;0.00;;;;;;;16.09;61.98;103024.41;2067832;28;20054;-75
2022/12/01 03:49:45;;;;;;;0.00;0.00;;;;;;;16.11;61.74;103024.88;2068105;28;20050;-75
2022/12/01 03:50:55;;;;;;;0.00;0.00;;;;;;;16.10;61.45;103017.81;2072915;28;20186;-75
2022/12/01 03:52:07;;;;;;;0.00;0.00;;;;;;;16.10;61.63;103023.25;2068883;28;20053;-75
2022/12/01 03:53:18;;;;;;;0.00;0.00;;;;;;;16.10;61.75;103023.25;2072023;28;20053;-75
2022/12/01 03:54:28;;;;;;;0.00;0.00;;;;;;;16.08;61.51;103018.13;2062820;28;20050;-76
2022/12/01 03:55:34;;;;;;;0.00;0.00;;;;;;;16.09;61.58;103022.44;2064665;28;20065;-76
2022/12/01 03:56:43;;;;;;;0.00;0.00;;;;;;;16.10;61.41;103021.34;2069553;28;20521;-75
2022/12/01 03:57:51;;;;;;;0.00;0.00;;;;;;;16.09;61.74;103022.44;2071368;28;20053;-73
2022/12/01 03:58:57;;;;;;;0.00;0.00;;;;;;;16.09;61.49;103016.22;2080155;28;20046;-75
2022/12/01 04:00:00;;;;;;;0.00;0.00;;;;;;;16.10;61.57;103017.81;2077578;28;20061;-75
2022/12/01 04:01:14;;;;;;;0.00;0.00;;;;;;;16.09;61.70;103027.13;2069692;28;20124;-75
2022/12/01 04:02:17;;;;;;;0.00;0.00;;;;;;;16.09;61.66;103022.44;2070345;28;20085;-75
2022/12/01 04:03:25;;;;;;;0.00;0.00;;;;;;;16.11;61.53;103027.59;2062019;28;20055;-75
2022/12/01 04:04:27;;;;;;;0.00;0.00;;;;;;;16.09;61.77;103022.44;2055213;28;20055;-75
2022/12/01 04:05:32;;;;;;;0.00;0.00;;;;;;;16.11;61.62;103031.13;2064609;28;20065;-75
2022/12/01 04:06:34;;;;;;;0.00;0.00;;;;;;;16.11;61.46;103027.59;2070208;28;20087;-75
2022/12/01 04:07:37;;;;;;;0.00;0.00;;;;;;;16.11;61.80;103028.38;2070361;28;20046;-75
2022/12/01 04:08:39;;;;;;;0.00;0.00;;;;;;;16.12;61.61;103029.19;2062655;28;20053;-75
2022/12/01 04:09:42;;;;;;;0.00;0.00;;;;;;;16.12;61.54;103031.94;2064643;28;20050;-75
2022/12/01 04:10:44;;;;;;;0.00;0.00;;;;;;;16.12;61.62;103027.28;2071128;28;20053;-73
2022/12/01 04:13:14;;;;;;;0.00;0.00;;;;;;;16.07;61.69;103035.63;2072680;28;20046;-75
2022/12/01 04:14:16;;;;;;;0.00;0.00;;;;;;;16.09;61.69;103033.34;2079053;28;20053;-75
2022/12/01 04:15:19;;;;;;;0.00;0.00;;;;;;;16.10;61.52;103032.25;2076216;28;20045;-75
2022/12/01 04:16:21;;;;;;;0.00;0.00;;;;;;;16.12;61.50;103030.00;2070532;28;20049;-75
2022/12/01 04:17:24;;;;;;;0.00;0.00;;;;;;;16.12;61.48;103030.00;2063967;28;20078;-75
2022/12/01 04:18:28;;;;;;;0.00;0.00;;;;;;;16.13;61.53;103028.88;2063581;28;20058;-75
2022/12/01 04:19:30;;;;;;;0.00;0.00;;;;;;;16.11;61.48;103025.66;2064625;28;20062;-75
2022/12/01 04:20:32;;;;;;;0.00;0.00;;;;;;;16.11;61.51;103028.38;2071358;28;20577;-76
2022/12/01 04:21:34;;;;;;;0.00;0.00;;;;;;;16.12;61.36;103035.47;2077694;28;20046;-75
2022/12/01 04:22:37;;;;;;;0.00;0.00;;;;;;;16.13;61.42;103028.88;2075668;28;20064;-75
2022/12/01 04:25:00;;;;;;;0.00;0.00;;;;;;;16.09;61.60;103038.03;2072951;28;20045;-75
2022/12/01 04:26:03;;;;;;;0.00;0.00;;;;;;;16.11;61.46;103033.84;2070135;28;20054;-75
2022/12/01 04:27:06;;;;;;;0.00;0.00;;;;;;;16.11;61.58;103033.84;2071174;28;20057;-76
2022/12/01 04:28:08;;;;;;;0.00;0.00;;;;;;;16.12;61.40;103032.72;2063062;28;21555;-75
2022/12/01 04:29:12;;;;;;;0.00;0.00;;;;;;;16.13;61.28;103036.25;2071083;28;20057;-76
2022/12/01 04:30:14;;;;;;;0.00;0.00;;;;;;;16.11;61.18;103036.56;2077774;28;20053;-76
2022/12/01 04:31:17;;;;;;;0.00;0.00;;;;;;;16.12;61.28;103035.47;2064391;28;20450;-75
2022/12/01 04:32:20;;;;;;;0.00;0.00;;;;;;;16.14;61.46;103037.84;2070512;28;20053;-75
2022/12/01 04:33:21;;;;;;;0.00;0.00;;;;;;;16.10;61.24;103034.97;2070322;28;20433;-75
2022/12/01 04:34:25;;;;;;;0.00;0.00;;;;;;;16.14;61.21;103037.84;2063265;28;20542;-75
2022/12/01 04:35:27;;;;;;;0.00;0.00;;;;;;;16.12;61.54;103031.94;2056030;28;20078;-75
2022/12/01 04:36:32;;;;;;;0.00;0.00;;;;;;;16.12;61.38;103031.94;2064223;28;20061;-75
2022/12/01 04:37:33;;;;;;;0.00;0.00;;;;;;;16.11;61.50;103036.56;2062650;28;20124;-75
2022/12/01 04:38:36;;;;;;;0.00;0.00;;;;;;;16.13;61.25;103037.06;2056960;28;20053;-75
2022/12/01 04:39:40;;;;;;;0.00;0.00;;;;;;;16.12;61.21;103040.91;2069366;28;20073;-75
2022/12/01 04:40:43;;;;;;;0.00;0.00;;;;;;;16.12;61.47;103040.91;2075006;28;20050;-75
2022/12/01 04:41:45;;;;;;;0.00;0.00;;;;;;;16.12;61.28;103032.72;2072293;28;20057;-75
2022/12/01 04:42:48;;;;;;;0.00;0.00;;;;;;;16.12;61.32;103038.19;2072237;28;20061;-75
2022/12/01 04:43:51;;;;;;;0.00;0.00;;;;;;;16.13;61.16;103042.50;2071736;28;20053;-75
2022/12/01 04:44:54;;;;;;;0.00;0.00;;;;;;;16.13;61.32;103033.50;2070380;28;20072;-75
2022/12/01 04:45:56;;;;;;;0.00;0.00;;;;;;;16.13;61.43;103044.41;2068366;28;20057;-75
2022/12/01 04:46:58;;;;;;;0.00;0.00;;;;;;;16.14;61.36;103037.84;2069669;28;20085;-75
2022/12/01 04:48:00;;;;;;;0.00;0.00;;;;;;;16.14;61.24;103041.38;2071288;28;20058;-75
2022/12/01 04:49:03;;;;;;;0.00;0.00;;;;;;;16.14;61.44;103046.81;2071542;28;20058;-75
2022/12/01 04:50:08;;;;;;;0.00;0.00;;;;;;;16.14;61.22;103044.09;2071113;28;20053;-75
2022/12/01 04:51:10;;;;;;;0.00;0.00;;;;;;;16.13;61.42;103038.97;2070754;28;20501;-75
2022/12/01 04:52:12;;;;;;;0.00;0.00;;;;;;;16.15;61.33;103040.25;2073079;28;20080;-75
2022/12/01 04:53:14;;;;;;;0.00;0.00;;;;;;;16.13;61.36;103033.50;2069873;28;20054;-75
2022/12/01 04:54:18;;;;;;;0.00;0.00;;;;;;;16.14;61.21;103040.59;2067773;28;20053;-75
2022/12/01 04:55:21;;;;;;;0.00;0.00;;;;;;;16.13;61.22;103038.97;2069657;28;20057;-75
2022/12/01 04:56:24;;;;;;;0.00;0.00;;;;;;;16.14;61.26;103037.84;2073149;28;20076;-75
2022/12/01 04:57:26;;;;;;;0.00;0.00;;;;;;;16.13;61.05;103039.78;2074248;28;20065;-75
2022/12/01 04:58:29;;;;;;;0.00;0.00;;;;;;;16.13;61.18;103039.78;2074955;28;20062;-75
2022/12/01 04:59:31;;;;;;;0.00;0.00;;;;;;;16.13;61.02;103039.78;2061883;28;20450;-74
2022/12/01 05:00:34;;;;;;;0.00;0.00;;;;;;;16.14;61.21;103040.59;2064480;28;20057;-75
2022/12/01 05:01:36;;;;;;;0.00;0.00;;;;;;;16.13;61.26;103034.31;2069282;28;20054;-75
2022/12/01 05:02:42;;;;;;;0.00;0.00;;;;;;;16.13;61.10;103039.78;2063523;28;20054;-75
2022/12/01 05:03:48;;;;;;;0.00;0.00;;;;;;;16.14;61.26;103037.84;2063937;28;20123;-75
2022/12/01 05:04:50;;;;;;;0.00;0.00;;;;;;;16.12;61.19;103031.94;2066079;28;20062;-75
2022/12/01 05:06:01;;;;;;;0.00;0.00;;;;;;;16.10;61.23;103026.00;2071434;28;20046;-75
2022/12/01 05:07:04;;;;;;;0.00;0.00;;;;;;;16.11;61.36;103033.06;2071214;28;20084;-75
2022/12/01 05:08:05;;;;;;;0.00;0.00;;;;;;;16.12;61.16;103030.00;2072022;28;20096;-75
2022/12/01 05:09:12;;;;;;;0.00;0.00;;;;;;;16.13;61.06;103034.31;2061507;28;20192;-75
2022/12/01 05:10:18;;;;;;;0.00;0.00;;;;;;;16.10;61.11;103029.53;2063746;28;20066;-75